EZY3YC ESSA-EDDB
Flight info
| Callsign | EZY3YC |
|---|---|
| Flight time | 1h 28m |
| Altitude | 36000 |
| Route | PETEV N872 ELPAX DCT BIKRU DCT RODEP T280 KETAP KETAP1R |
| Aircraft | A21N/M-SDE2E3FGHIRWXY/LB1 |
Departure
| Time | 2026-05-05 08:59 |
|---|---|
| Airport | Stockholm-Arlanda Airport (ESSA) |
Arrival
| Time | 2026-05-05 10:27 |
|---|---|
| Airport | Berlin Brandenburg Airport (EDDB) |
| Time | Latitude | Longitude | Altitude | Speed | Heading |
|---|---|---|---|---|---|
| 2026-05-05 08:40 | 59.64299 | 17.93018 | 138 ft | 0 kts | 26° |
| 2026-05-05 08:49 | 59.64286 | 17.93006 | 138 ft | 4 kts | 26° |
| 2026-05-05 08:49 | 59.64262 | 17.92983 | 138 ft | 4 kts | 26° |
| 2026-05-05 08:49 | 59.64238 | 17.92959 | 138 ft | 4 kts | 26° |
| 2026-05-05 08:49 | 59.64217 | 17.92939 | 138 ft | 3 kts | 27° |
| 2026-05-05 08:50 | 59.64197 | 17.92910 | 138 ft | 4 kts | 63° |
| 2026-05-05 08:50 | 59.64192 | 17.92880 | 138 ft | 4 kts | 101° |
| 2026-05-05 08:50 | 59.64202 | 17.92833 | 138 ft | 4 kts | 120° |
| 2026-05-05 08:50 | 59.64210 | 17.92807 | 138 ft | 0 kts | 114° |
| 2026-05-05 08:53 | 59.64186 | 17.92884 | 138 ft | 12 kts | 133° |
| 2026-05-05 08:53 | 59.64130 | 17.92777 | 138 ft | 16 kts | 275° |
| 2026-05-05 08:53 | 59.64189 | 17.92537 | 138 ft | 23 kts | 297° |
| 2026-05-05 08:54 | 59.64272 | 17.92207 | 138 ft | 27 kts | 296° |
| 2026-05-05 08:54 | 59.64350 | 17.91939 | 138 ft | 7 kts | 323° |
| 2026-05-05 08:54 | 59.64387 | 17.91929 | 138 ft | 5 kts | 355° |
| 2026-05-05 08:54 | 59.64442 | 17.91944 | 138 ft | 13 kts | 9° |
| 2026-05-05 08:55 | 59.64578 | 17.91992 | 138 ft | 29 kts | 10° |
| 2026-05-05 08:55 | 59.64807 | 17.92075 | 138 ft | 34 kts | 10° |
| 2026-05-05 08:55 | 59.65046 | 17.92163 | 138 ft | 35 kts | 10° |
| 2026-05-05 08:55 | 59.65290 | 17.92249 | 138 ft | 36 kts | 9° |
| 2026-05-05 08:56 | 59.65538 | 17.92328 | 138 ft | 34 kts | 11° |
| 2026-05-05 08:56 | 59.65776 | 17.92422 | 138 ft | 38 kts | 10° |
| 2026-05-05 08:56 | 59.66017 | 17.92515 | 138 ft | 32 kts | 11° |
| 2026-05-05 08:56 | 59.66220 | 17.92588 | 138 ft | 28 kts | 10° |
| 2026-05-05 08:57 | 59.66396 | 17.92653 | 138 ft | 24 kts | 9° |
| 2026-05-05 08:57 | 59.66553 | 17.92598 | 139 ft | 24 kts | 339° |
| 2026-05-05 08:57 | 59.66611 | 17.92427 | 142 ft | 12 kts | 251° |
| 2026-05-05 08:57 | 59.66546 | 17.92349 | 142 ft | 0 kts | 190° |
| 2026-05-05 08:58 | 59.66537 | 17.92346 | 142 ft | 14 kts | 190° |
| 2026-05-05 08:58 | 59.66193 | 17.92216 | 145 ft | 85 kts | 191° |
| 2026-05-05 08:59 | 59.65384 | 17.91920 | 144 ft | 150 kts | 191° |
| 2026-05-05 08:59 | 59.64197 | 17.91520 | 460 ft | 189 kts | 192° |
| 2026-05-05 08:59 | 59.62898 | 17.91049 | 1553 ft | 179 kts | 196° |
| 2026-05-05 08:59 | 59.61691 | 17.90282 | 2356 ft | 190 kts | 212° |
| 2026-05-05 09:00 | 59.60775 | 17.88281 | 2740 ft | 209 kts | 241° |
| 2026-05-05 09:00 | 59.60025 | 17.85773 | 3599 ft | 210 kts | 242° |
| 2026-05-05 09:00 | 59.59256 | 17.83359 | 4529 ft | 209 kts | 241° |
| 2026-05-05 09:00 | 59.58480 | 17.80753 | 4939 ft | 232 kts | 247° |
| 2026-05-05 09:01 | 59.57730 | 17.77739 | 5450 ft | 253 kts | 245° |
| 2026-05-05 09:01 | 59.56912 | 17.74695 | 6565 ft | 250 kts | 243° |
| 2026-05-05 09:01 | 59.55819 | 17.72012 | 7534 ft | 254 kts | 229° |
| 2026-05-05 09:01 | 59.54566 | 17.69556 | 8526 ft | 253 kts | 229° |
| 2026-05-05 09:02 | 59.53344 | 17.67064 | 9532 ft | 252 kts | 231° |
| 2026-05-05 09:02 | 59.52136 | 17.64557 | 10415 ft | 252 kts | 231° |
| 2026-05-05 09:02 | 59.50896 | 17.62010 | 10967 ft | 266 kts | 231° |
| 2026-05-05 09:02 | 59.49565 | 17.59290 | 11278 ft | 286 kts | 231° |
| 2026-05-05 09:03 | 59.48128 | 17.56361 | 11545 ft | 308 kts | 230° |
| 2026-05-05 09:03 | 59.46594 | 17.53241 | 11894 ft | 324 kts | 230° |
| 2026-05-05 09:03 | 59.45038 | 17.50096 | 12949 ft | 319 kts | 231° |
| 2026-05-05 09:03 | 59.43493 | 17.46965 | 13861 ft | 320 kts | 231° |
| 2026-05-05 09:04 | 59.41940 | 17.43801 | 14514 ft | 324 kts | 231° |
| 2026-05-05 09:04 | 59.40367 | 17.40615 | 15243 ft | 326 kts | 231° |
| 2026-05-05 09:04 | 59.38783 | 17.37417 | 15939 ft | 328 kts | 231° |
| 2026-05-05 09:04 | 59.37184 | 17.34190 | 16597 ft | 331 kts | 231° |
| 2026-05-05 09:05 | 59.35574 | 17.30941 | 17249 ft | 334 kts | 231° |
| 2026-05-05 09:05 | 59.33943 | 17.27660 | 17907 ft | 337 kts | 231° |
| 2026-05-05 09:05 | 59.32324 | 17.24405 | 18452 ft | 340 kts | 231° |
| 2026-05-05 09:05 | 59.30664 | 17.21070 | 18982 ft | 343 kts | 230° |
| 2026-05-05 09:06 | 59.28990 | 17.17717 | 19496 ft | 346 kts | 230° |
| 2026-05-05 09:06 | 59.27301 | 17.14340 | 19991 ft | 349 kts | 230° |
| 2026-05-05 09:06 | 59.25601 | 17.10940 | 20495 ft | 351 kts | 230° |
| 2026-05-05 09:06 | 59.23880 | 17.07507 | 20977 ft | 354 kts | 230° |
| 2026-05-05 09:07 | 59.22148 | 17.04058 | 21440 ft | 357 kts | 230° |
| 2026-05-05 09:07 | 59.20376 | 17.00637 | 21901 ft | 362 kts | 226° |
| 2026-05-05 09:07 | 59.18431 | 16.97468 | 22349 ft | 366 kts | 225° |
| 2026-05-05 09:07 | 59.16460 | 16.94296 | 22810 ft | 368 kts | 225° |
| 2026-05-05 09:08 | 59.14488 | 16.91079 | 23237 ft | 371 kts | 225° |
| 2026-05-05 09:08 | 59.12504 | 16.87838 | 23603 ft | 374 kts | 225° |
| 2026-05-05 09:08 | 59.10500 | 16.84593 | 23977 ft | 376 kts | 225° |
| 2026-05-05 09:08 | 59.08481 | 16.81338 | 24329 ft | 378 kts | 225° |
| 2026-05-05 09:09 | 59.06453 | 16.78060 | 24674 ft | 380 kts | 225° |
| 2026-05-05 09:09 | 59.04418 | 16.74771 | 25018 ft | 382 kts | 225° |
| 2026-05-05 09:09 | 59.02370 | 16.71472 | 25354 ft | 384 kts | 225° |
| 2026-05-05 09:09 | 59.00308 | 16.68160 | 25688 ft | 385 kts | 225° |
| 2026-05-05 09:10 | 58.98242 | 16.64843 | 26008 ft | 387 kts | 225° |
| 2026-05-05 09:10 | 58.96158 | 16.61501 | 26317 ft | 389 kts | 224° |
| 2026-05-05 09:10 | 58.94068 | 16.58157 | 26636 ft | 391 kts | 224° |
| 2026-05-05 09:10 | 58.91963 | 16.54795 | 26916 ft | 393 kts | 224° |
| 2026-05-05 09:11 | 58.89850 | 16.51425 | 27206 ft | 395 kts | 224° |
| 2026-05-05 09:11 | 58.87727 | 16.48044 | 27489 ft | 397 kts | 224° |
| 2026-05-05 09:11 | 58.85591 | 16.44652 | 27816 ft | 397 kts | 224° |
| 2026-05-05 09:11 | 58.83458 | 16.41270 | 28238 ft | 395 kts | 224° |
| 2026-05-05 09:12 | 58.81338 | 16.37911 | 28665 ft | 394 kts | 224° |
| 2026-05-05 09:12 | 58.79224 | 16.34566 | 29056 ft | 393 kts | 224° |
| 2026-05-05 09:12 | 58.77112 | 16.31231 | 29461 ft | 392 kts | 224° |
| 2026-05-05 09:12 | 58.75006 | 16.27913 | 29834 ft | 391 kts | 224° |
| 2026-05-05 09:13 | 58.72904 | 16.24606 | 30150 ft | 390 kts | 224° |
| 2026-05-05 09:13 | 58.70804 | 16.21305 | 30448 ft | 390 kts | 224° |
| 2026-05-05 09:13 | 58.68732 | 16.18055 | 30731 ft | 389 kts | 224° |
| 2026-05-05 09:13 | 58.66605 | 16.14724 | 31012 ft | 389 kts | 224° |
| 2026-05-05 09:14 | 58.64540 | 16.11496 | 31277 ft | 388 kts | 224° |
| 2026-05-05 09:14 | 58.62443 | 16.08223 | 31549 ft | 388 kts | 224° |
| 2026-05-05 09:14 | 58.60322 | 16.04917 | 31815 ft | 388 kts | 224° |
| 2026-05-05 09:14 | 58.58257 | 16.01704 | 32074 ft | 387 kts | 224° |
| 2026-05-05 09:15 | 58.56167 | 15.98457 | 32351 ft | 387 kts | 224° |
| 2026-05-05 09:15 | 58.54076 | 15.95214 | 32617 ft | 386 kts | 224° |
| 2026-05-05 09:15 | 58.51990 | 15.91983 | 32865 ft | 386 kts | 224° |
| 2026-05-05 09:15 | 58.49897 | 15.88748 | 33118 ft | 386 kts | 224° |
| 2026-05-05 09:16 | 58.47812 | 15.85530 | 33379 ft | 385 kts | 224° |
| 2026-05-05 09:16 | 58.45727 | 15.82315 | 33621 ft | 385 kts | 224° |
| 2026-05-05 09:16 | 58.43642 | 15.79107 | 33867 ft | 384 kts | 224° |
| 2026-05-05 09:16 | 58.41561 | 15.75910 | 34057 ft | 385 kts | 224° |
| 2026-05-05 09:17 | 58.39473 | 15.72704 | 34192 ft | 386 kts | 224° |
| 2026-05-05 09:17 | 58.37375 | 15.69491 | 34345 ft | 387 kts | 224° |
| 2026-05-05 09:17 | 58.35274 | 15.66276 | 34483 ft | 388 kts | 224° |
| 2026-05-05 09:17 | 58.33167 | 15.63058 | 34621 ft | 389 kts | 224° |
| 2026-05-05 09:18 | 58.31051 | 15.59831 | 34761 ft | 390 kts | 224° |
| 2026-05-05 09:18 | 58.28928 | 15.56598 | 34907 ft | 391 kts | 224° |
| 2026-05-05 09:18 | 58.26804 | 15.53369 | 35049 ft | 392 kts | 223° |
| 2026-05-05 09:18 | 58.24668 | 15.50127 | 35185 ft | 393 kts | 223° |
| 2026-05-05 09:19 | 58.22529 | 15.46885 | 35341 ft | 394 kts | 223° |
| 2026-05-05 09:19 | 58.20384 | 15.43640 | 35471 ft | 395 kts | 223° |
| 2026-05-05 09:19 | 58.18232 | 15.40389 | 35599 ft | 396 kts | 223° |
| 2026-05-05 09:19 | 58.16074 | 15.37135 | 35730 ft | 397 kts | 223° |
| 2026-05-05 09:20 | 58.13913 | 15.33880 | 35815 ft | 399 kts | 223° |
| 2026-05-05 09:20 | 58.09286 | 15.27894 | 35900 ft | 413 kts | 209° |
| 2026-05-05 09:20 | 58.06519 | 15.26160 | 35899 ft | 426 kts | 198° |
| 2026-05-05 09:21 | 58.03603 | 15.25068 | 35890 ft | 427 kts | 198° |
| 2026-05-05 09:21 | 57.97799 | 15.22898 | 35878 ft | 424 kts | 198° |
| 2026-05-05 09:22 | 57.92016 | 15.20704 | 35878 ft | 425 kts | 198° |
| 2026-05-05 09:22 | 57.86258 | 15.18559 | 35882 ft | 424 kts | 198° |
| 2026-05-05 09:23 | 57.80464 | 15.16384 | 35884 ft | 424 kts | 198° |
| 2026-05-05 09:23 | 57.74672 | 15.14231 | 35870 ft | 424 kts | 198° |
| 2026-05-05 09:24 | 57.68879 | 15.12077 | 35887 ft | 425 kts | 198° |
| 2026-05-05 09:24 | 57.63081 | 15.09932 | 35883 ft | 425 kts | 197° |
| 2026-05-05 09:25 | 57.57283 | 15.07794 | 35883 ft | 425 kts | 197° |
| 2026-05-05 09:25 | 57.51482 | 15.05659 | 35881 ft | 425 kts | 197° |
| 2026-05-05 09:26 | 57.45673 | 15.03531 | 35889 ft | 426 kts | 197° |
| 2026-05-05 09:26 | 57.39857 | 15.01405 | 35884 ft | 426 kts | 197° |
| 2026-05-05 09:27 | 57.34045 | 14.99289 | 35888 ft | 426 kts | 197° |
| 2026-05-05 09:27 | 57.28226 | 14.97177 | 35889 ft | 426 kts | 197° |
| 2026-05-05 09:28 | 57.22396 | 14.95068 | 35886 ft | 427 kts | 197° |
| 2026-05-05 09:28 | 57.16563 | 14.92964 | 35887 ft | 427 kts | 197° |
| 2026-05-05 09:29 | 57.10727 | 14.90864 | 35885 ft | 427 kts | 197° |
| 2026-05-05 09:29 | 57.04890 | 14.88774 | 35880 ft | 428 kts | 197° |
| 2026-05-05 09:30 | 56.99086 | 14.86700 | 35878 ft | 428 kts | 196° |
| 2026-05-05 09:30 | 56.93240 | 14.84619 | 35875 ft | 428 kts | 196° |
| 2026-05-05 09:31 | 56.87384 | 14.82539 | 35880 ft | 429 kts | 196° |
| 2026-05-05 09:31 | 56.81520 | 14.80465 | 35881 ft | 430 kts | 196° |
| 2026-05-05 09:32 | 56.75645 | 14.78393 | 35887 ft | 431 kts | 196° |
| 2026-05-05 09:32 | 56.69921 | 14.76381 | 35890 ft | 431 kts | 196° |
| 2026-05-05 09:33 | 56.64041 | 14.74320 | 35897 ft | 430 kts | 196° |
| 2026-05-05 09:33 | 56.58155 | 14.72263 | 35907 ft | 431 kts | 195° |
| 2026-05-05 09:34 | 56.52272 | 14.70213 | 35910 ft | 430 kts | 195° |
| 2026-05-05 09:34 | 56.46395 | 14.68178 | 35910 ft | 430 kts | 195° |
| 2026-05-05 09:35 | 56.40517 | 14.66139 | 35918 ft | 430 kts | 195° |
| 2026-05-05 09:35 | 56.31698 | 14.63099 | 35917 ft | 429 kts | 195° |
| 2026-05-05 09:36 | 56.25833 | 14.61087 | 35921 ft | 429 kts | 195° |
| 2026-05-05 09:36 | 56.19968 | 14.59079 | 35926 ft | 429 kts | 195° |
| 2026-05-05 09:37 | 56.14113 | 14.57082 | 35928 ft | 428 kts | 195° |
| 2026-05-05 09:37 | 56.09236 | 14.55420 | 35928 ft | 428 kts | 195° |
| 2026-05-05 09:38 | 56.02444 | 14.53119 | 35930 ft | 427 kts | 195° |
| 2026-05-05 09:38 | 55.96597 | 14.51140 | 35927 ft | 428 kts | 195° |
| 2026-05-05 09:39 | 55.91700 | 14.49489 | 35927 ft | 427 kts | 195° |
| 2026-05-05 09:39 | 55.85855 | 14.47525 | 35928 ft | 428 kts | 195° |
| 2026-05-05 09:40 | 55.80004 | 14.45564 | 35929 ft | 428 kts | 195° |
| 2026-05-05 09:40 | 55.74193 | 14.43622 | 35933 ft | 427 kts | 195° |
| 2026-05-05 09:41 | 55.68355 | 14.41678 | 35934 ft | 427 kts | 195° |
| 2026-05-05 09:41 | 55.62516 | 14.39738 | 35938 ft | 427 kts | 195° |
| 2026-05-05 09:42 | 55.56688 | 14.37809 | 35939 ft | 426 kts | 195° |
| 2026-05-05 09:42 | 55.50877 | 14.35891 | 35943 ft | 424 kts | 195° |
| 2026-05-05 09:43 | 55.45081 | 14.33982 | 35945 ft | 424 kts | 195° |
| 2026-05-05 09:43 | 55.39288 | 14.32082 | 35947 ft | 424 kts | 195° |
| 2026-05-05 09:44 | 55.33486 | 14.30183 | 35946 ft | 425 kts | 194° |
| 2026-05-05 09:44 | 55.27665 | 14.28285 | 35951 ft | 425 kts | 194° |
| 2026-05-05 09:45 | 55.21851 | 14.26394 | 35941 ft | 425 kts | 194° |
| 2026-05-05 09:45 | 55.16029 | 14.24506 | 35950 ft | 425 kts | 194° |
| 2026-05-05 09:46 | 55.10209 | 14.22625 | 35949 ft | 425 kts | 194° |
| 2026-05-05 09:46 | 55.04429 | 14.20762 | 35943 ft | 425 kts | 194° |
| 2026-05-05 09:47 | 54.98616 | 14.18893 | 35943 ft | 425 kts | 194° |
| 2026-05-05 09:47 | 54.92800 | 14.17029 | 35944 ft | 425 kts | 194° |
| 2026-05-05 09:48 | 54.87021 | 14.14926 | 35943 ft | 425 kts | 195° |
| 2026-05-05 09:48 | 54.81221 | 14.12897 | 35941 ft | 425 kts | 196° |
| 2026-05-05 09:49 | 54.75451 | 14.10761 | 35944 ft | 424 kts | 196° |
| 2026-05-05 09:49 | 54.69676 | 14.08700 | 35941 ft | 423 kts | 196° |
| 2026-05-05 09:50 | 54.63912 | 14.06610 | 35933 ft | 423 kts | 196° |
| 2026-05-05 09:50 | 54.58153 | 14.04550 | 35934 ft | 423 kts | 196° |
| 2026-05-05 09:51 | 54.52396 | 14.02484 | 35943 ft | 423 kts | 196° |
| 2026-05-05 09:51 | 54.46634 | 14.00429 | 35940 ft | 423 kts | 196° |
| 2026-05-05 09:52 | 54.40867 | 13.98374 | 35942 ft | 423 kts | 196° |
| 2026-05-05 09:52 | 54.35100 | 13.96328 | 35935 ft | 423 kts | 196° |
| 2026-05-05 09:53 | 54.29341 | 13.94289 | 35936 ft | 422 kts | 196° |
| 2026-05-05 09:53 | 54.23534 | 13.92235 | 34995 ft | 430 kts | 196° |
| 2026-05-05 09:54 | 54.20638 | 13.91222 | 34475 ft | 421 kts | 196° |
| 2026-05-05 09:54 | 54.17795 | 13.90228 | 33916 ft | 412 kts | 196° |
| 2026-05-05 09:54 | 54.15018 | 13.89249 | 33344 ft | 404 kts | 196° |
| 2026-05-05 09:54 | 54.12271 | 13.88279 | 32821 ft | 405 kts | 196° |
| 2026-05-05 09:55 | 54.09502 | 13.87305 | 32280 ft | 407 kts | 196° |
| 2026-05-05 09:55 | 54.06722 | 13.86337 | 31743 ft | 408 kts | 195° |
| 2026-05-05 09:55 | 54.03935 | 13.85366 | 31203 ft | 409 kts | 195° |
| 2026-05-05 09:55 | 54.01187 | 13.84381 | 30755 ft | 408 kts | 196° |
| 2026-05-05 09:56 | 53.98388 | 13.83378 | 30107 ft | 414 kts | 195° |
| 2026-05-05 09:56 | 53.95571 | 13.82451 | 29531 ft | 411 kts | 195° |
| 2026-05-05 09:56 | 53.92754 | 13.81500 | 28993 ft | 415 kts | 195° |
| 2026-05-05 09:56 | 53.89928 | 13.80494 | 28440 ft | 416 kts | 195° |
| 2026-05-05 09:57 | 53.87085 | 13.79491 | 27893 ft | 418 kts | 195° |
| 2026-05-05 09:57 | 53.84247 | 13.78522 | 27333 ft | 410 kts | 195° |
| 2026-05-05 09:57 | 53.81495 | 13.77589 | 26809 ft | 397 kts | 195° |
| 2026-05-05 09:57 | 53.78838 | 13.76667 | 26300 ft | 384 kts | 195° |
| 2026-05-05 09:58 | 53.76255 | 13.75767 | 25802 ft | 373 kts | 195° |
| 2026-05-05 09:58 | 53.73746 | 13.74904 | 25324 ft | 364 kts | 195° |
| 2026-05-05 09:58 | 53.71270 | 13.74055 | 24851 ft | 363 kts | 195° |
| 2026-05-05 09:58 | 53.68797 | 13.73222 | 24374 ft | 362 kts | 193° |
| 2026-05-05 09:59 | 53.66277 | 13.72865 | 23896 ft | 364 kts | 187° |
| 2026-05-05 09:59 | 53.63752 | 13.72651 | 23405 ft | 362 kts | 187° |
| 2026-05-05 09:59 | 53.61246 | 13.72405 | 22896 ft | 359 kts | 187° |
| 2026-05-05 09:59 | 53.58758 | 13.72128 | 22429 ft | 359 kts | 187° |
| 2026-05-05 10:00 | 53.56268 | 13.71867 | 21953 ft | 358 kts | 187° |
| 2026-05-05 10:00 | 53.53786 | 13.71624 | 21486 ft | 356 kts | 187° |
| 2026-05-05 10:00 | 53.51319 | 13.71378 | 21021 ft | 355 kts | 187° |
| 2026-05-05 10:00 | 53.48858 | 13.71124 | 20547 ft | 354 kts | 187° |
| 2026-05-05 10:01 | 53.46402 | 13.70870 | 20080 ft | 354 kts | 187° |
| 2026-05-05 10:01 | 53.43950 | 13.70623 | 19617 ft | 350 kts | 187° |
| 2026-05-05 10:01 | 53.41520 | 13.70381 | 19161 ft | 350 kts | 187° |
| 2026-05-05 10:01 | 53.39096 | 13.70134 | 18699 ft | 349 kts | 187° |
| 2026-05-05 10:02 | 53.36707 | 13.69890 | 18251 ft | 348 kts | 187° |
| 2026-05-05 10:02 | 53.34266 | 13.69644 | 17747 ft | 346 kts | 186° |
| 2026-05-05 10:02 | 53.31905 | 13.69408 | 17299 ft | 343 kts | 186° |
| 2026-05-05 10:02 | 53.29527 | 13.69168 | 16851 ft | 342 kts | 186° |
| 2026-05-05 10:03 | 53.27161 | 13.68928 | 16397 ft | 340 kts | 186° |
| 2026-05-05 10:03 | 53.24803 | 13.68691 | 15950 ft | 338 kts | 186° |
| 2026-05-05 10:03 | 53.22459 | 13.68456 | 15505 ft | 336 kts | 186° |
| 2026-05-05 10:03 | 53.20127 | 13.68223 | 15066 ft | 335 kts | 186° |
| 2026-05-05 10:04 | 53.17805 | 13.67990 | 14622 ft | 333 kts | 186° |
| 2026-05-05 10:04 | 53.15499 | 13.67758 | 14186 ft | 332 kts | 186° |
| 2026-05-05 10:04 | 53.13201 | 13.67528 | 13747 ft | 330 kts | 186° |
| 2026-05-05 10:04 | 53.10916 | 13.67301 | 13282 ft | 327 kts | 186° |
| 2026-05-05 10:05 | 53.08657 | 13.67076 | 12855 ft | 324 kts | 186° |
| 2026-05-05 10:05 | 53.06414 | 13.66852 | 12425 ft | 322 kts | 186° |
| 2026-05-05 10:05 | 53.04187 | 13.66628 | 11994 ft | 319 kts | 186° |
| 2026-05-05 10:05 | 53.01981 | 13.66408 | 11588 ft | 317 kts | 186° |
| 2026-05-05 10:06 | 52.99788 | 13.66191 | 11172 ft | 315 kts | 186° |
| 2026-05-05 10:06 | 52.97605 | 13.65974 | 10745 ft | 313 kts | 186° |
| 2026-05-05 10:06 | 52.95444 | 13.65702 | 10331 ft | 310 kts | 191° |
| 2026-05-05 10:06 | 52.93469 | 13.64523 | 9957 ft | 298 kts | 212° |
| 2026-05-05 10:07 | 52.91934 | 13.62420 | 9901 ft | 277 kts | 229° |
| 2026-05-05 10:07 | 52.90870 | 13.59740 | 9910 ft | 279 kts | 240° |
| 2026-05-05 10:07 | 52.89960 | 13.56963 | 9880 ft | 269 kts | 240° |
| 2026-05-05 10:07 | 52.89052 | 13.54244 | 9235 ft | 272 kts | 240° |
| 2026-05-05 10:08 | 52.88134 | 13.51503 | 8731 ft | 270 kts | 240° |
| 2026-05-05 10:08 | 52.87233 | 13.48793 | 8249 ft | 268 kts | 240° |
| 2026-05-05 10:08 | 52.86342 | 13.46113 | 7885 ft | 261 kts | 240° |
| 2026-05-05 10:08 | 52.85481 | 13.43540 | 7907 ft | 261 kts | 240° |
| 2026-05-05 10:09 | 52.84600 | 13.40906 | 7330 ft | 263 kts | 241° |
| 2026-05-05 10:09 | 52.83717 | 13.38270 | 6812 ft | 264 kts | 241° |
| 2026-05-05 10:09 | 52.82837 | 13.35638 | 6419 ft | 260 kts | 241° |
| 2026-05-05 10:09 | 52.81959 | 13.33025 | 5912 ft | 259 kts | 241° |
| 2026-05-05 10:10 | 52.81086 | 13.30425 | 5402 ft | 258 kts | 241° |
| 2026-05-05 10:10 | 52.80216 | 13.27835 | 4934 ft | 257 kts | 241° |
| 2026-05-05 10:10 | 52.79348 | 13.25259 | 4427 ft | 256 kts | 241° |
| 2026-05-05 10:10 | 52.78484 | 13.22690 | 3937 ft | 255 kts | 241° |
| 2026-05-05 10:11 | 52.77621 | 13.20129 | 3446 ft | 255 kts | 241° |
| 2026-05-05 10:11 | 52.76758 | 13.17574 | 2998 ft | 253 kts | 240° |
| 2026-05-05 10:11 | 52.75914 | 13.15077 | 2990 ft | 255 kts | 241° |
| 2026-05-05 10:11 | 52.75056 | 13.12539 | 2985 ft | 249 kts | 241° |
| 2026-05-05 10:12 | 52.74192 | 13.09984 | 2990 ft | 252 kts | 241° |
| 2026-05-05 10:12 | 52.73329 | 13.07440 | 2994 ft | 258 kts | 241° |
| 2026-05-05 10:12 | 52.72464 | 13.04892 | 2990 ft | 257 kts | 241° |
| 2026-05-05 10:12 | 52.71594 | 13.02329 | 2984 ft | 254 kts | 241° |
| 2026-05-05 10:13 | 52.70722 | 12.99764 | 2985 ft | 255 kts | 241° |
| 2026-05-05 10:13 | 52.69851 | 12.97204 | 2996 ft | 258 kts | 241° |
| 2026-05-05 10:13 | 52.68980 | 12.94646 | 2987 ft | 255 kts | 241° |
| 2026-05-05 10:13 | 52.68106 | 12.92085 | 2989 ft | 255 kts | 241° |
| 2026-05-05 10:14 | 52.67235 | 12.89534 | 2990 ft | 256 kts | 240° |
| 2026-05-05 10:14 | 52.66362 | 12.86977 | 2983 ft | 256 kts | 240° |
| 2026-05-05 10:14 | 52.65487 | 12.84421 | 2990 ft | 256 kts | 240° |
| 2026-05-05 10:14 | 52.64611 | 12.81866 | 2988 ft | 257 kts | 241° |
| 2026-05-05 10:15 | 52.63734 | 12.79303 | 2990 ft | 256 kts | 241° |
| 2026-05-05 10:15 | 52.62713 | 12.76913 | 2984 ft | 257 kts | 221° |
| 2026-05-05 10:15 | 52.61142 | 12.75535 | 2980 ft | 260 kts | 194° |
| 2026-05-05 10:15 | 52.59348 | 12.75523 | 2991 ft | 262 kts | 166° |
| 2026-05-05 10:16 | 52.57719 | 12.76869 | 2988 ft | 264 kts | 146° |
| 2026-05-05 10:16 | 52.56250 | 12.78687 | 2986 ft | 265 kts | 143° |
| 2026-05-05 10:16 | 52.54783 | 12.80510 | 2983 ft | 264 kts | 144° |
| 2026-05-05 10:16 | 52.53296 | 12.82302 | 2984 ft | 265 kts | 145° |
| 2026-05-05 10:17 | 52.51830 | 12.84066 | 2978 ft | 265 kts | 145° |
| 2026-05-05 10:17 | 52.50350 | 12.85864 | 2981 ft | 264 kts | 144° |
| 2026-05-05 10:17 | 52.48873 | 12.87656 | 2985 ft | 264 kts | 144° |
| 2026-05-05 10:17 | 52.47397 | 12.89437 | 2987 ft | 264 kts | 145° |
| 2026-05-05 10:18 | 52.45917 | 12.91218 | 2990 ft | 264 kts | 144° |
| 2026-05-05 10:18 | 52.44439 | 12.93000 | 2993 ft | 261 kts | 144° |
| 2026-05-05 10:18 | 52.43052 | 12.94682 | 2975 ft | 241 kts | 145° |
| 2026-05-05 10:18 | 52.41724 | 12.96281 | 2958 ft | 236 kts | 145° |
| 2026-05-05 10:19 | 52.40423 | 12.97838 | 2965 ft | 229 kts | 145° |
| 2026-05-05 10:19 | 52.39138 | 12.99377 | 2967 ft | 226 kts | 145° |
| 2026-05-05 10:19 | 52.37805 | 13.00735 | 2961 ft | 227 kts | 161° |
| 2026-05-05 10:19 | 52.36263 | 13.01167 | 2975 ft | 224 kts | 175° |
| 2026-05-05 10:20 | 52.34715 | 13.01433 | 2972 ft | 225 kts | 174° |
| 2026-05-05 10:20 | 52.33205 | 13.02049 | 2956 ft | 226 kts | 153° |
| 2026-05-05 10:20 | 52.32060 | 13.03807 | 2970 ft | 228 kts | 130° |
| 2026-05-05 10:20 | 52.31088 | 13.05865 | 2969 ft | 228 kts | 129° |
| 2026-05-05 10:21 | 52.30096 | 13.07890 | 2973 ft | 228 kts | 130° |
| 2026-05-05 10:21 | 52.29088 | 13.09884 | 2965 ft | 227 kts | 130° |
| 2026-05-05 10:21 | 52.28098 | 13.11870 | 2967 ft | 218 kts | 130° |
| 2026-05-05 10:21 | 52.27271 | 13.13907 | 2962 ft | 211 kts | 112° |
| 2026-05-05 10:22 | 52.27288 | 13.16104 | 2960 ft | 184 kts | 71° |
| 2026-05-05 10:22 | 52.27705 | 13.17971 | 2966 ft | 171 kts | 70° |
| 2026-05-05 10:22 | 52.28090 | 13.19742 | 2968 ft | 160 kts | 70° |
| 2026-05-05 10:22 | 52.28484 | 13.21427 | 2974 ft | 158 kts | 69° |
| 2026-05-05 10:23 | 52.28876 | 13.23074 | 2978 ft | 156 kts | 69° |
| 2026-05-05 10:23 | 52.29268 | 13.24711 | 2969 ft | 155 kts | 68° |
| 2026-05-05 10:23 | 52.29661 | 13.26352 | 2785 ft | 155 kts | 69° |
| 2026-05-05 10:23 | 52.30052 | 13.27995 | 2581 ft | 154 kts | 69° |
| 2026-05-05 10:24 | 52.30440 | 13.29629 | 2383 ft | 153 kts | 69° |
| 2026-05-05 10:24 | 52.30824 | 13.31246 | 2174 ft | 153 kts | 69° |
| 2026-05-05 10:24 | 52.31209 | 13.32864 | 1974 ft | 152 kts | 69° |
| 2026-05-05 10:24 | 52.31589 | 13.34447 | 1772 ft | 152 kts | 68° |
| 2026-05-05 10:25 | 52.31971 | 13.36045 | 1574 ft | 150 kts | 69° |
| 2026-05-05 10:25 | 52.32347 | 13.37630 | 1377 ft | 149 kts | 68° |
| 2026-05-05 10:25 | 52.32721 | 13.39202 | 1177 ft | 148 kts | 69° |
| 2026-05-05 10:25 | 52.33093 | 13.40773 | 971 ft | 148 kts | 68° |
| 2026-05-05 10:26 | 52.33462 | 13.42326 | 776 ft | 146 kts | 68° |
| 2026-05-05 10:26 | 52.33829 | 13.43867 | 581 ft | 145 kts | 68° |
| 2026-05-05 10:26 | 52.34192 | 13.45398 | 389 ft | 144 kts | 68° |
| 2026-05-05 10:26 | 52.34551 | 13.46912 | 206 ft | 143 kts | 68° |
| 2026-05-05 10:27 | 52.34894 | 13.48324 | 161 ft | 119 kts | 67° |
| 2026-05-05 10:27 | 52.35155 | 13.49401 | 160 ft | 68 kts | 68° |
| 2026-05-05 10:27 | 52.35286 | 13.49936 | 156 ft | 46 kts | 68° |
| 2026-05-05 10:27 | 52.35384 | 13.50339 | 157 ft | 25 kts | 68° |
| 2026-05-05 10:28 | 52.35439 | 13.50487 | 158 ft | 20 kts | 49° |
| 2026-05-05 10:28 | 52.35533 | 13.50626 | 156 ft | 17 kts | 38° |
| 2026-05-05 10:28 | 52.35622 | 13.50743 | 153 ft | 16 kts | 39° |
| 2026-05-05 10:28 | 52.35704 | 13.50834 | 152 ft | 13 kts | 19° |
| 2026-05-05 10:29 | 52.35777 | 13.50821 | 150 ft | 9 kts | 341° |
| 2026-05-05 10:29 | 52.35821 | 13.50795 | 152 ft | 5 kts | 339° |
| 2026-05-05 10:29 | 52.35873 | 13.50769 | 153 ft | 12 kts | 355° |
| 2026-05-05 10:29 | 52.35935 | 13.50901 | 155 ft | 16 kts | 70° |
| 2026-05-05 10:30 | 52.35968 | 13.51036 | 156 ft | 11 kts | 68° |
| 2026-05-05 10:30 | 52.35992 | 13.51138 | 156 ft | 9 kts | 68° |
| 2026-05-05 10:30 | 52.36012 | 13.51220 | 156 ft | 7 kts | 68° |
| 2026-05-05 10:30 | 52.36030 | 13.51297 | 156 ft | 8 kts | 69° |
| 2026-05-05 10:31 | 52.36049 | 13.51347 | 156 ft | 2 kts | 31° |
| 2026-05-05 10:31 | 52.36068 | 13.51332 | 156 ft | 6 kts | 336° |
| 2026-05-05 10:31 | 52.36113 | 13.51304 | 155 ft | 5 kts | 339° |
| 2026-05-05 10:31 | 52.36129 | 13.51295 | 155 ft | 0 kts | 339° |
| 2026-05-05 10:32 | 52.36128 | 13.51295 | 155 ft | 0 kts | 339° |
| 2026-05-05 10:32 | 52.36121 | 13.51300 | 155 ft | 4 kts | 339° |
| 2026-05-05 10:32 | 52.36095 | 13.51316 | 155 ft | 4 kts | 339° |
| 2026-05-05 10:32 | 52.36112 | 13.51305 | 155 ft | 0 kts | 339° |
| 2026-05-05 10:33 | 52.36122 | 13.51299 | 155 ft | 3 kts | 339° |
| 2026-05-05 10:33 | 52.36122 | 13.51298 | 155 ft | 0 kts | 339° |
| 2026-05-05 10:33 | 52.36124 | 13.51298 | 155 ft | 0 kts | 339° |